createdAt,value
2023-07-09T00:01:18.379Z,21.70
2023-07-09T00:03:49.504Z,21.60
2023-07-09T00:06:17.069Z,21.60
2023-07-09T00:08:48.902Z,21.50
2023-07-09T00:11:16.731Z,21.40
2023-07-09T00:13:43.699Z,21.40
2023-07-09T00:16:26.205Z,21.40
2023-07-09T00:18:53.140Z,21.40
2023-07-09T00:21:21.615Z,21.40
2023-07-09T00:23:50.109Z,21.40
2023-07-09T00:26:21.650Z,21.40
2023-07-09T00:28:48.840Z,21.40
2023-07-09T00:31:17.965Z,21.40
2023-07-09T00:33:46.590Z,21.30
2023-07-09T00:36:34.610Z,21.20
2023-07-09T00:39:05.860Z,21.00
2023-07-09T00:41:38.873Z,20.70
2023-07-09T00:44:21.106Z,20.50
2023-07-09T00:46:50.916Z,20.30
2023-07-09T00:49:32.909Z,20.30
2023-07-09T00:52:23.205Z,20.30
2023-07-09T00:54:53.214Z,20.30
2023-07-09T00:57:25.404Z,20.30
2023-07-09T01:00:02.367Z,20.40
2023-07-09T01:02:30.707Z,20.40
2023-07-09T01:05:02.101Z,20.50
2023-07-09T01:07:31.290Z,20.50
2023-07-09T01:09:58.368Z,20.60
2023-07-09T01:12:26.608Z,20.60
2023-07-09T01:14:59.885Z,20.50
2023-07-09T01:17:30.542Z,20.50
2023-07-09T01:19:58.447Z,20.50
2023-07-09T01:22:26.032Z,20.50
2023-07-09T01:24:57.204Z,20.50
2023-07-09T01:27:37.747Z,20.40
2023-07-09T01:30:08.667Z,20.40
2023-07-09T01:32:35.737Z,20.40
2023-07-09T01:35:08.732Z,20.40
2023-07-09T01:37:38.224Z,20.30
2023-07-09T01:40:20.279Z,20.30
2023-07-09T01:42:52.532Z,20.20
2023-07-09T01:45:21.216Z,20.10
2023-07-09T01:47:48.120Z,20.00
2023-07-09T01:50:17.440Z,20.00
2023-07-09T01:52:45.691Z,19.90
2023-07-09T01:55:17.927Z,19.80
2023-07-09T01:57:46.646Z,19.80
2023-07-09T02:00:16.507Z,19.70
2023-07-09T02:02:48.605Z,19.60
2023-07-09T02:05:18.702Z,19.60
2023-07-09T02:07:46.115Z,19.60
2023-07-09T02:10:14.074Z,19.50
2023-07-09T02:12:41.019Z,19.50
2023-07-09T02:15:08.842Z,19.40
2023-07-09T02:17:36.094Z,19.40
2023-07-09T02:20:05.411Z,19.40
2023-07-09T02:22:33.018Z,19.30
2023-07-09T02:24:59.916Z,19.20
2023-07-09T02:27:27.586Z,19.10
2023-07-09T02:29:55.479Z,19.10
2023-07-09T02:32:27.435Z,19.10
2023-07-09T02:34:55.548Z,19.10
2023-07-09T02:37:25.963Z,19.10
2023-07-09T02:39:53.454Z,19.10
2023-07-09T02:42:22.558Z,19.10
2023-07-09T02:44:50.150Z,19.10
2023-07-09T02:47:18.749Z,19.10
2023-07-09T02:49:45.958Z,18.90
2023-07-09T02:52:13.794Z,18.90
2023-07-09T02:54:40.700Z,18.80
2023-07-09T02:57:08.306Z,18.70
2023-07-09T02:59:35.829Z,18.60
2023-07-09T03:02:03.292Z,18.50
2023-07-09T03:04:32.231Z,18.50
2023-07-09T03:07:01.235Z,18.40
2023-07-09T03:09:29.071Z,18.40
2023-07-09T03:11:56.382Z,18.40
2023-07-09T03:14:23.458Z,18.40
2023-07-09T03:16:50.331Z,18.40
2023-07-09T03:19:17.219Z,18.40
2023-07-09T03:21:44.108Z,18.40
2023-07-09T03:24:11.101Z,18.40
2023-07-09T03:26:38.064Z,18.40
2023-07-09T03:29:05.029Z,18.30
2023-07-09T03:31:36.011Z,18.30
2023-07-09T03:34:03.201Z,18.30
2023-07-09T03:36:30.642Z,18.20
2023-07-09T03:38:57.669Z,18.30
2023-07-09T03:41:25.300Z,18.30
2023-07-09T03:43:53.886Z,18.30
2023-07-09T03:46:21.004Z,18.30
2023-07-09T03:48:48.120Z,18.30
2023-07-09T03:51:14.960Z,18.30
2023-07-09T03:53:41.589Z,18.40
2023-07-09T03:56:08.792Z,18.40
2023-07-09T03:58:36.441Z,18.50
2023-07-09T04:01:03.495Z,18.50
2023-07-09T04:03:30.401Z,18.50
2023-07-09T04:05:57.372Z,18.60
2023-07-09T04:08:24.380Z,18.60
2023-07-09T04:10:53.475Z,18.60
2023-07-09T04:13:20.250Z,18.70
2023-07-09T04:15:47.020Z,18.70
2023-07-09T04:18:13.860Z,18.80
2023-07-09T04:20:40.830Z,18.90
2023-07-09T04:23:09.024Z,19.00
2023-07-09T04:25:35.950Z,19.00
2023-07-09T04:28:02.714Z,19.10
2023-07-09T04:30:29.494Z,19.20
2023-07-09T04:32:56.366Z,19.30
2023-07-09T04:35:23.270Z,19.30
2023-07-09T04:37:50.429Z,19.30
2023-07-09T04:40:19.537Z,19.40
2023-07-09T04:42:46.367Z,19.40
2023-07-09T04:45:13.672Z,19.50
2023-07-09T04:47:40.919Z,19.50
2023-07-09T04:50:09.153Z,19.50
2023-07-09T04:52:36.594Z,19.50
2023-07-09T04:55:03.855Z,19.50
2023-07-09T04:57:30.716Z,19.50
2023-07-09T04:59:57.611Z,19.50
2023-07-09T05:02:24.736Z,19.50
2023-07-09T05:04:51.891Z,19.50
2023-07-09T05:07:19.297Z,19.60
2023-07-09T05:09:46.368Z,19.70
2023-07-09T05:12:13.324Z,19.90
2023-07-09T05:14:40.566Z,20.00
2023-07-09T05:17:08.068Z,20.10
2023-07-09T05:19:35.220Z,20.40
2023-07-09T05:22:02.194Z,20.50
2023-07-09T05:24:29.263Z,20.70
2023-07-09T05:26:56.924Z,20.80
2023-07-09T05:29:24.618Z,21.00
2023-07-09T05:31:51.562Z,21.10
2023-07-09T05:34:18.497Z,21.20
2023-07-09T05:36:46.031Z,21.40
2023-07-09T05:39:12.930Z,21.50
2023-07-09T05:41:40.048Z,21.60
2023-07-09T05:44:06.890Z,21.80
2023-07-09T05:46:37.498Z,21.90
2023-07-09T05:49:05.949Z,22.00
2023-07-09T05:51:32.794Z,22.00
2023-07-09T05:53:59.838Z,22.10
2023-07-09T05:56:26.890Z,22.20
2023-07-09T05:58:53.810Z,22.40
2023-07-09T06:01:21.435Z,22.60
2023-07-09T06:03:49.029Z,22.70
2023-07-09T06:06:17.362Z,22.80
2023-07-09T06:08:44.456Z,22.90
2023-07-09T06:11:11.582Z,23.00
2023-07-09T06:13:38.504Z,23.20
2023-07-09T06:16:06.094Z,23.30
2023-07-09T06:18:37.463Z,23.50
2023-07-09T06:21:05.074Z,23.70
2023-07-09T06:23:32.538Z,23.90
2023-07-09T06:25:59.750Z,24.00
2023-07-09T06:28:30.623Z,24.20
2023-07-09T06:30:58.350Z,24.40
2023-07-09T06:33:26.929Z,24.60
2023-07-09T06:36:02.565Z,24.70
2023-07-09T06:38:30.336Z,24.90
2023-07-09T06:40:58.863Z,25.10
2023-07-09T06:43:26.114Z,25.30
2023-07-09T06:45:55.757Z,25.30
2023-07-09T06:48:24.063Z,25.40
2023-07-09T06:50:51.429Z,25.60
2023-07-09T06:53:18.430Z,25.70
2023-07-09T06:55:45.426Z,25.70
2023-07-09T06:58:12.443Z,25.80
2023-07-09T07:00:39.378Z,26.00
2023-07-09T07:03:06.857Z,26.20
2023-07-09T07:05:34.136Z,26.30
2023-07-09T07:08:02.217Z,26.40
2023-07-09T07:10:29.280Z,26.60
2023-07-09T07:12:56.243Z,26.90
2023-07-09T07:15:23.660Z,27.00
2023-07-09T07:17:50.654Z,27.10
2023-07-09T07:20:18.388Z,27.10
2023-07-09T07:22:45.826Z,27.20
2023-07-09T07:25:13.456Z,27.40
2023-07-09T07:27:40.554Z,27.60
2023-07-09T07:30:11.584Z,27.80
2023-07-09T07:32:43.282Z,28.00
2023-07-09T07:35:10.384Z,28.20
2023-07-09T07:37:37.293Z,28.30
2023-07-09T07:40:05.844Z,28.30
2023-07-09T07:42:32.888Z,28.30
2023-07-09T07:44:59.868Z,28.40
2023-07-09T07:47:28.424Z,28.60
2023-07-09T07:49:55.337Z,28.80
2023-07-09T07:52:23.477Z,29.00
2023-07-09T07:54:50.493Z,29.10
2023-07-09T07:57:17.253Z,29.30
2023-07-09T07:59:44.361Z,29.30
2023-07-09T08:02:13.978Z,29.40
2023-07-09T08:04:41.602Z,29.40
2023-07-09T08:07:09.515Z,29.50
2023-07-09T08:09:36.830Z,29.50
2023-07-09T08:12:15.213Z,29.40
2023-07-09T08:14:45.823Z,29.60
2023-07-09T08:17:13.244Z,29.70
2023-07-09T08:19:50.039Z,29.80
2023-07-09T08:22:17.482Z,30.20
2023-07-09T08:24:44.493Z,30.50
2023-07-09T08:27:11.986Z,30.70
2023-07-09T08:29:40.475Z,31.10
2023-07-09T08:42:59.786Z,33.40
2023-07-09T08:57:54.421Z,35.70
2023-07-09T09:01:10.273Z,36.30
2023-07-09T09:03:47.538Z,36.70
2023-07-09T09:06:43.124Z,37.20
2023-07-09T09:09:44.394Z,36.90
2023-07-09T09:12:55.933Z,37.30
2023-07-09T09:16:12.158Z,37.90
2023-07-09T09:22:29.389Z,38.40
2023-07-09T09:25:18.186Z,38.90
2023-07-09T09:27:48.143Z,38.90
2023-07-09T09:30:20.978Z,39.10
2023-07-09T09:32:54.637Z,39.30
2023-07-09T09:35:30.693Z,39.80
2023-07-09T09:37:59.603Z,40.60
2023-07-09T09:40:30.954Z,40.90
2023-07-09T09:43:00.815Z,40.60
2023-07-09T09:45:36.970Z,40.60
2023-07-09T09:48:19.084Z,40.30
2023-07-09T09:50:59.053Z,39.90
2023-07-09T09:53:28.457Z,40.40
2023-07-09T09:55:57.571Z,40.10
2023-07-09T09:58:33.984Z,40.00
2023-07-09T10:01:10.130Z,40.50
2023-07-09T10:03:41.820Z,40.80
2023-07-09T10:06:47.253Z,41.60
2023-07-09T10:09:30.257Z,41.70
2023-07-09T10:12:27.281Z,41.90
2023-07-09T10:15:26.065Z,41.70
2023-07-09T10:18:18.286Z,41.80
2023-07-09T10:21:12.109Z,41.80
2023-07-09T10:48:51.126Z,45.40
2023-07-09T10:51:59.241Z,45.10
2023-07-09T10:58:29.810Z,44.20
2023-07-09T11:01:08.571Z,44.80
2023-07-09T11:03:50.525Z,44.60
2023-07-09T11:06:50.787Z,44.70
2023-07-09T11:09:38.617Z,44.60
2023-07-09T11:12:16.853Z,44.00
2023-07-09T11:15:26.407Z,44.40
2023-07-09T11:18:05.952Z,44.90
2023-07-09T11:20:44.414Z,45.60
2023-07-09T11:23:25.553Z,45.30
2023-07-09T11:26:23.893Z,45.20
2023-07-09T11:29:13.761Z,45.30
2023-07-09T11:31:45.822Z,45.40
2023-07-09T11:34:17.237Z,45.30
2023-07-09T11:37:13.021Z,45.60
2023-07-09T11:39:41.400Z,45.90
2023-07-09T11:42:32.822Z,45.70
2023-07-09T11:45:13.094Z,45.70
2023-07-09T11:47:47.876Z,46.10
2023-07-09T11:50:28.990Z,46.40
2023-07-09T11:53:05.517Z,46.60
2023-07-09T11:55:47.313Z,46.70
2023-07-09T11:58:17.865Z,47.40
2023-07-09T12:00:49.605Z,47.30
2023-07-09T12:03:25.241Z,46.20
2023-07-09T12:05:54.947Z,46.40
2023-07-09T12:08:38.131Z,47.00
2023-07-09T12:11:06.017Z,47.70
2023-07-09T12:13:40.667Z,47.90
2023-07-09T12:16:31.692Z,47.60
2023-07-09T12:18:58.978Z,48.00
2023-07-09T12:21:27.288Z,47.80
2023-07-09T12:23:55.747Z,48.00
2023-07-09T12:26:23.203Z,48.20
2023-07-09T12:28:54.613Z,48.50
2023-07-09T12:31:27.985Z,48.00
2023-07-09T12:33:56.516Z,47.60
2023-07-09T12:36:25.890Z,47.60
2023-07-09T12:38:56.715Z,47.80
2023-07-09T12:41:39.717Z,47.00
2023-07-09T12:44:07.244Z,47.00
2023-07-09T12:46:34.407Z,47.10
2023-07-09T12:49:01.891Z,47.00
2023-07-09T12:51:31.090Z,46.80
2023-07-09T12:54:14.129Z,46.10
2023-07-09T12:56:41.021Z,46.60
2023-07-09T12:59:19.905Z,47.60
2023-07-09T13:01:57.868Z,47.80
2023-07-09T13:04:37.418Z,47.90
2023-07-09T13:07:05.670Z,48.10
2023-07-09T13:09:33.019Z,47.70
2023-07-09T13:12:00.024Z,46.90
2023-07-09T13:14:32.238Z,47.10
2023-07-09T13:17:10.553Z,47.30
2023-07-09T13:19:37.394Z,47.80
2023-07-09T13:22:06.562Z,48.50
2023-07-09T13:24:34.211Z,48.20
2023-07-09T13:27:02.455Z,48.10
2023-07-09T13:29:29.431Z,48.40
2023-07-09T13:31:58.413Z,47.40
2023-07-09T13:34:28.139Z,47.50
2023-07-09T13:36:57.389Z,47.80
2023-07-09T13:39:27.754Z,47.30
2023-07-09T13:41:56.600Z,47.00
2023-07-09T13:44:29.101Z,46.90
2023-07-09T13:46:56.845Z,46.60
2023-07-09T13:49:26.466Z,47.30
2023-07-09T13:51:55.702Z,46.90
2023-07-09T13:54:25.692Z,46.60
2023-07-09T13:56:53.007Z,47.20
2023-07-09T13:59:28.726Z,47.70
2023-07-09T14:01:57.335Z,47.90
2023-07-09T14:04:25.755Z,47.40
2023-07-09T14:06:53.075Z,46.10
2023-07-09T14:09:19.952Z,45.30
2023-07-09T14:11:51.087Z,46.30
2023-07-09T14:14:28.876Z,47.70
2023-07-09T14:16:55.897Z,48.50
2023-07-09T14:19:24.316Z,48.10
2023-07-09T14:21:52.765Z,46.80
2023-07-09T14:24:28.306Z,47.00
2023-07-09T14:26:59.432Z,46.60
2023-07-09T14:29:27.331Z,46.50
2023-07-09T14:31:54.400Z,45.70
2023-07-09T14:34:28.978Z,45.20
2023-07-09T14:36:58.416Z,45.30
2023-07-09T14:39:28.085Z,45.10
2023-07-09T14:41:55.368Z,45.00
2023-07-09T14:44:26.452Z,44.20
2023-07-09T14:46:55.599Z,44.00
2023-07-09T14:49:22.975Z,43.40
2023-07-09T14:51:52.493Z,43.40
2023-07-09T14:54:24.778Z,43.50
2023-07-09T14:56:53.231Z,43.30
2023-07-09T14:59:21.000Z,43.50
2023-07-09T15:01:48.266Z,43.30
2023-07-09T15:04:32.773Z,43.70
2023-07-09T15:07:00.462Z,43.40
2023-07-09T15:09:29.068Z,43.20
2023-07-09T15:11:58.554Z,43.20
2023-07-09T15:14:27.250Z,43.30
2023-07-09T15:16:55.952Z,43.30
2023-07-09T15:19:24.549Z,43.30
2023-07-09T15:21:52.119Z,43.40
2023-07-09T15:24:33.780Z,42.90
2023-07-09T15:27:01.578Z,42.80
2023-07-09T15:29:30.263Z,42.50
2023-07-09T15:31:57.541Z,42.50
2023-07-09T15:34:24.780Z,42.40
2023-07-09T15:36:53.642Z,42.10
2023-07-09T15:39:21.670Z,41.20
2023-07-09T15:41:49.270Z,40.50
2023-07-09T15:44:17.649Z,40.20
2023-07-09T15:47:05.141Z,40.00
2023-07-09T15:49:32.227Z,39.50
2023-07-09T15:51:59.048Z,38.70
2023-07-09T15:54:26.035Z,38.40
2023-07-09T15:56:54.772Z,38.30
2023-07-09T15:59:33.952Z,38.20
2023-07-09T16:02:03.723Z,38.00
2023-07-09T16:04:30.904Z,37.90
2023-07-09T16:06:57.925Z,37.80
2023-07-09T16:09:25.037Z,37.60
2023-07-09T16:11:53.982Z,37.60
2023-07-09T16:14:25.147Z,37.50
2023-07-09T16:16:54.206Z,37.60
2023-07-09T16:19:23.474Z,37.60
2023-07-09T16:21:56.358Z,37.80
2023-07-09T16:24:27.061Z,38.20
2023-07-09T16:26:54.306Z,38.40
2023-07-09T16:29:26.373Z,38.50
2023-07-09T16:31:55.344Z,38.50
2023-07-09T16:34:27.376Z,38.50
2023-07-09T16:36:55.941Z,38.60
2023-07-09T16:39:39.458Z,38.40
2023-07-09T16:42:13.517Z,38.40
2023-07-09T16:44:40.818Z,38.40
2023-07-09T16:47:21.084Z,38.20
2023-07-09T16:49:50.263Z,38.00
2023-07-09T16:52:18.350Z,37.90
2023-07-09T16:54:45.418Z,37.80
2023-07-09T16:57:23.669Z,37.70
2023-07-09T16:59:51.156Z,37.60
2023-07-09T17:02:28.035Z,37.40
2023-07-09T17:04:57.253Z,36.70
2023-07-09T17:07:24.237Z,36.20
2023-07-09T17:09:53.195Z,36.00
2023-07-09T17:12:20.231Z,35.70
2023-07-09T17:14:47.204Z,35.70
2023-07-09T17:17:17.050Z,35.50
2023-07-09T17:19:45.442Z,35.50
2023-07-09T17:22:28.383Z,35.40
2023-07-09T17:24:55.243Z,35.40
2023-07-09T17:27:21.961Z,35.20
2023-07-09T17:29:48.796Z,35.10
2023-07-09T17:32:16.656Z,34.80
2023-07-09T17:34:43.862Z,34.60
2023-07-09T17:37:17.102Z,34.40
2023-07-09T17:39:44.142Z,34.30
2023-07-09T17:42:18.063Z,34.20
2023-07-09T17:44:45.804Z,34.00
2023-07-09T17:47:17.812Z,33.90
2023-07-09T17:49:45.585Z,33.80
2023-07-09T17:52:20.367Z,33.80
2023-07-09T17:54:50.355Z,33.70
2023-07-09T17:57:27.305Z,33.60
2023-07-09T17:59:54.422Z,33.60
2023-07-09T18:02:30.431Z,33.50
2023-07-09T18:04:57.703Z,33.50
2023-07-09T18:07:31.724Z,33.40
2023-07-09T18:09:59.361Z,33.40
2023-07-09T18:12:29.085Z,33.30
2023-07-09T18:14:58.713Z,33.20
2023-07-09T18:17:36.242Z,33.00
2023-07-09T18:20:08.732Z,32.90
2023-07-09T18:22:35.827Z,32.70
2023-07-09T18:25:02.696Z,32.50
2023-07-09T18:27:41.417Z,32.40
2023-07-09T18:30:16.882Z,32.30
2023-07-09T18:32:44.921Z,32.10
2023-07-09T18:35:33.111Z,32.10
2023-07-09T18:38:06.861Z,32.00
2023-07-09T18:40:40.203Z,32.00
2023-07-09T18:43:30.692Z,31.90
2023-07-09T18:45:59.021Z,31.90
2023-07-09T18:48:28.798Z,31.80
2023-07-09T18:50:57.303Z,31.70
2023-07-09T18:53:25.861Z,31.70
2023-07-09T18:55:54.315Z,31.60
2023-07-09T18:58:26.837Z,31.50
2023-07-09T19:00:55.203Z,31.30
2023-07-09T19:03:27.363Z,31.20
2023-07-09T19:05:55.776Z,31.10
2023-07-09T19:08:25.609Z,31.00
2023-07-09T19:10:52.604Z,30.90
2023-07-09T19:13:21.259Z,30.90
2023-07-09T19:15:50.332Z,30.80
2023-07-09T19:18:27.599Z,30.60
2023-07-09T19:20:55.865Z,30.50
2023-07-09T19:23:24.054Z,30.30
2023-07-09T19:25:52.816Z,30.30
2023-07-09T19:28:20.965Z,30.20
2023-07-09T19:30:49.572Z,30.10
2023-07-09T19:33:37.403Z,30.00
2023-07-09T19:36:15.865Z,30.00
2023-07-09T19:38:42.777Z,29.90
2023-07-09T19:41:11.995Z,29.80
2023-07-09T19:43:38.981Z,29.70
2023-07-09T19:46:06.108Z,29.50
2023-07-09T19:48:33.169Z,29.40
2023-07-09T19:51:00.229Z,29.30
2023-07-09T19:53:29.156Z,29.10
2023-07-09T19:55:57.112Z,29.00
2023-07-09T19:58:24.528Z,28.80
2023-07-09T20:00:52.320Z,28.80
2023-07-09T20:03:33.835Z,28.80
2023-07-09T20:06:02.511Z,28.70
2023-07-09T20:08:29.819Z,28.60
2023-07-09T20:11:02.199Z,28.60
2023-07-09T20:13:31.939Z,28.50
2023-07-09T20:15:59.332Z,28.50
2023-07-09T20:18:26.983Z,28.50
2023-07-09T20:20:56.935Z,28.50
2023-07-09T20:23:25.336Z,28.40
2023-07-09T20:25:54.356Z,28.40
2023-07-09T20:28:24.559Z,28.40
2023-07-09T20:30:55.570Z,28.30
2023-07-09T20:33:23.387Z,28.30
2023-07-09T20:35:51.518Z,28.20
2023-07-09T20:38:24.213Z,28.20
2023-07-09T20:40:52.364Z,28.10
2023-07-09T20:43:28.347Z,28.10
2023-07-09T20:45:55.795Z,28.00
2023-07-09T20:48:24.571Z,28.00
2023-07-09T20:50:52.688Z,27.90
2023-07-09T20:53:20.509Z,27.90
2023-07-09T20:55:48.525Z,27.90
2023-07-09T20:58:19.160Z,27.90
2023-07-09T21:00:47.652Z,27.90
2023-07-09T21:03:26.223Z,27.80
2023-07-09T21:05:54.013Z,27.80
2023-07-09T21:08:27.045Z,27.70
2023-07-09T21:10:54.113Z,27.60
2023-07-09T21:13:24.676Z,27.50
2023-07-09T21:15:54.728Z,27.40
2023-07-09T21:18:23.237Z,27.40
2023-07-09T21:20:50.037Z,27.30
2023-07-09T21:23:19.774Z,27.20
2023-07-09T21:25:47.032Z,27.10
2023-07-09T21:28:14.645Z,27.10
2023-07-09T21:30:41.858Z,27.10
2023-07-09T21:33:17.548Z,27.00
2023-07-09T21:35:45.878Z,27.00
2023-07-09T21:38:23.925Z,26.90
2023-07-09T21:40:52.098Z,26.90
2023-07-09T21:43:19.494Z,26.80
2023-07-09T21:45:49.565Z,26.70
2023-07-09T21:48:22.408Z,26.70
2023-07-09T21:50:49.562Z,26.60
2023-07-09T21:53:34.836Z,26.50
2023-07-09T21:56:12.846Z,26.50
2023-07-09T21:58:41.291Z,26.40
2023-07-09T22:01:19.702Z,26.50
2023-07-09T22:03:47.287Z,26.50
2023-07-09T22:06:14.590Z,26.50
2023-07-09T22:08:46.408Z,26.50
2023-07-09T22:11:23.748Z,26.50
2023-07-09T22:13:50.544Z,26.40
2023-07-09T22:16:17.508Z,26.50
2023-07-09T22:18:45.478Z,26.50
2023-07-09T22:21:12.222Z,26.40
2023-07-09T22:23:39.321Z,26.40
2023-07-09T22:26:07.438Z,26.40
2023-07-09T22:28:34.493Z,26.40
2023-07-09T22:31:01.401Z,26.40
2023-07-09T22:33:28.265Z,26.40
2023-07-09T22:35:57.389Z,26.40
2023-07-09T22:38:25.484Z,26.40
2023-07-09T22:40:52.593Z,26.40
2023-07-09T22:43:19.928Z,26.30
2023-07-09T22:45:50.705Z,26.30
2023-07-09T22:48:20.446Z,26.30
2023-07-09T22:50:47.904Z,26.20
2023-07-09T22:53:17.023Z,26.20
2023-07-09T22:55:46.216Z,26.20
2023-07-09T22:58:14.855Z,26.10
2023-07-09T23:00:44.772Z,26.10
2023-07-09T23:03:20.689Z,26.00
2023-07-09T23:05:48.795Z,26.00
2023-07-09T23:08:28.474Z,25.90
2023-07-09T23:11:00.813Z,25.90
2023-07-09T23:13:33.966Z,25.90
2023-07-09T23:16:03.057Z,25.90
2023-07-09T23:18:31.090Z,25.90
2023-07-09T23:20:58.119Z,25.90
2023-07-09T23:23:24.929Z,25.80
2023-07-09T23:25:57.608Z,25.80
2023-07-09T23:28:25.197Z,25.70
2023-07-09T23:30:53.006Z,25.60
2023-07-09T23:33:31.301Z,25.60
2023-07-09T23:36:00.146Z,25.60
2023-07-09T23:38:29.092Z,25.50
2023-07-09T23:41:13.853Z,25.40
2023-07-09T23:43:42.084Z,25.30
2023-07-09T23:46:12.569Z,25.20
2023-07-09T23:48:42.869Z,25.20
2023-07-09T23:51:11.662Z,25.10
2023-07-09T23:53:39.291Z,25.20
2023-07-09T23:56:13.352Z,25.10
2023-07-09T23:58:41.425Z,25.10
